Time;durP1;ratioP1;P1;durP2;ratioP2;P2;SDS_P1;SDS_P2;PMS_P1;PMS_P2;Temp;Humidity;BMP_temperature;BMP_pressure;BME280_temperature;BME280_humidity;BME280_pressure;Samples;Min_cycle;Max_cycle;Signal;HPM_P1;HPM_P2
2021/06/21 00:00:22;;;;;;;4.73;1.87;;;17.60;99.90;;;;;;5093154;28;20659;-81
2021/06/21 00:02:50;;;;;;;5.93;2.10;;;17.60;99.90;;;;;;5093318;28;20641;-82
2021/06/21 00:05:17;;;;;;;5.33;2.07;;;17.50;99.90;;;;;;5092945;28;20737;-81
2021/06/21 00:07:45;;;;;;;4.23;3.10;;;17.40;99.90;;;;;;5093102;28;20624;-82
2021/06/21 00:10:15;;;;;;;5.80;2.27;;;17.50;99.90;;;;;;5092007;28;20607;-81
2021/06/21 00:12:44;;;;;;;4.30;1.83;;;17.40;99.90;;;;;;5093381;28;20657;-82
2021/06/21 00:15:15;;;;;;;2.73;1.60;;;17.40;99.90;;;;;;5092425;28;20705;-81
2021/06/21 00:17:42;;;;;;;2.93;1.63;;;17.30;99.90;;;;;;5072832;28;20716;-82
2021/06/21 00:20:10;;;;;;;2.17;1.77;;;17.40;99.90;;;;;;5072675;28;20618;-82
2021/06/21 00:22:38;;;;;;;3.77;1.80;;;17.50;99.90;;;;;;5072315;28;20745;-82
2021/06/21 00:25:05;;;;;;;6.10;1.67;;;17.60;99.90;;;;;;5088805;28;20636;-82
2021/06/21 00:27:34;;;;;;;2.80;1.60;;;17.50;99.90;;;;;;5092779;28;20668;-82
2021/06/21 00:30:01;;;;;;;5.70;2.40;;;17.50;99.90;;;;;;5092966;28;20724;-82
2021/06/21 00:32:29;;;;;;;2.70;1.87;;;17.60;99.90;;;;;;5092240;28;21023;-82
2021/06/21 00:34:56;;;;;;;3.83;1.70;;;17.60;99.90;;;;;;5091994;28;20618;-82
2021/06/21 00:37:24;;;;;;;6.70;1.97;;;17.60;99.90;;;;;;5092816;28;20628;-82
2021/06/21 00:39:51;;;;;;;5.20;2.57;;;17.40;99.90;;;;;;5092695;28;20652;-82
2021/06/21 00:42:19;;;;;;;4.00;1.77;;;17.30;99.90;;;;;;5092959;28;20617;-82
2021/06/21 00:44:46;;;;;;;4.90;2.17;;;17.20;99.90;;;;;;5092185;28;20753;-82
2021/06/21 00:47:14;;;;;;;6.73;2.13;;;17.40;99.90;;;;;;5092090;28;20952;-82
2021/06/21 00:49:42;;;;;;;2.90;2.30;;;17.40;99.90;;;;;;5091398;28;20627;-81
2021/06/21 00:52:16;;;;;;;6.00;2.90;;;17.40;99.90;;;;;;5092181;28;20705;-81
2021/06/21 00:54:43;;;;;;;5.10;2.67;;;17.30;99.90;;;;;;5091589;28;20621;-82
2021/06/21 00:57:10;;;;;;;5.63;2.93;;;17.50;99.90;;;;;;5092434;28;20648;-82
2021/06/21 00:59:37;;;;;;;8.20;1.90;;;17.60;99.90;;;;;;5092581;28;20610;-82
2021/06/21 01:02:04;;;;;;;4.30;2.73;;;17.60;99.90;;;;;;5090945;28;20679;-82
2021/06/21 01:04:33;;;;;;;5.83;2.63;;;17.60;99.90;;;;;;5091341;28;20651;-82
2021/06/21 01:07:02;;;;;;;6.10;2.20;;;17.60;99.90;;;;;;5091930;28;20608;-82
2021/06/21 01:09:30;;;;;;;4.33;1.97;;;17.60;99.90;;;;;;5087629;28;20992;-82
2021/06/21 01:12:03;;;;;;;4.83;1.60;;;17.60;99.90;;;;;;5079156;28;20630;-82
2021/06/21 01:14:38;;;;;;;2.80;1.80;;;17.60;99.90;;;;;;5074928;28;20627;-82
2021/06/21 01:17:12;;;;;;;3.80;1.60;;;17.60;99.90;;;;;;5080673;28;20668;-82
2021/06/21 01:20:07;;;;;;;3.63;1.70;;;17.60;99.90;;;;;;5091042;28;21079;-82
2021/06/21 01:23:03;;;;;;;8.00;2.27;;;17.60;99.90;;;;;;5092047;28;20616;-82
2021/06/21 01:25:37;;;;;;;5.97;2.67;;;17.50;99.90;;;;;;5070997;28;20615;-82
2021/06/21 01:28:14;;;;;;;7.27;2.53;;;17.60;99.90;;;;;;5071875;28;20645;-82
2021/06/21 01:30:52;;;;;;;4.17;2.40;;;17.50;99.90;;;;;;5071458;28;20626;-82
2021/06/21 01:33:22;;;;;;;5.10;1.60;;;17.50;99.90;;;;;;5086006;28;21018;-81
2021/06/21 01:35:59;;;;;;;5.60;3.03;;;17.50;99.90;;;;;;5091054;28;20733;-82
2021/06/21 01:38:31;;;;;;;9.70;2.30;;;17.50;99.90;;;;;;5091710;28;20621;-82
2021/06/21 01:41:06;;;;;;;6.00;2.30;;;17.60;99.90;;;;;;5091150;28;20702;-82
2021/06/21 01:43:41;;;;;;;4.83;2.17;;;17.50;99.90;;;;;;5091318;28;20958;-82
2021/06/21 01:46:15;;;;;;;4.53;2.10;;;17.30;99.90;;;;;;5091217;28;21170;-81
2021/06/21 01:48:47;;;;;;;4.07;2.30;;;17.20;99.90;;;;;;5090716;28;21173;-82
2021/06/21 01:51:17;;;;;;;7.20;2.10;;;17.30;99.90;;;;;;5090788;28;20682;-81
2021/06/21 01:53:48;;;;;;;3.97;2.13;;;17.40;99.90;;;;;;5091211;28;21203;-82
2021/06/21 01:56:21;;;;;;;4.57;1.60;;;17.40;99.90;;;;;;5090104;28;20628;-81
2021/06/21 01:58:51;;;;;;;2.80;2.50;;;17.50;99.90;;;;;;5091094;28;20600;-82
2021/06/21 02:01:20;;;;;;;3.20;1.80;;;17.50;99.90;;;;;;5091275;28;20705;-82
2021/06/21 02:03:52;;;;;;;7.90;2.80;;;17.50;99.90;;;;;;5089884;28;21457;-82
2021/06/21 02:06:21;;;;;;;5.90;2.17;;;17.50;99.90;;;;;;5070106;28;20638;-81
2021/06/21 02:08:51;;;;;;;8.27;2.23;;;17.40;99.90;;;;;;5086719;28;20627;-81
2021/06/21 02:11:19;;;;;;;5.27;2.13;;;17.40;99.90;;;;;;5090035;28;20674;-81
2021/06/21 02:13:50;;;;;;;4.47;2.70;;;17.40;99.90;;;;;;5090953;28;20664;-81
2021/06/21 02:16:19;;;;;;;4.10;2.40;;;17.30;99.90;;;;;;5090331;28;20625;-81
2021/06/21 02:18:51;;;;;;;9.23;3.10;;;17.30;99.90;;;;;;5090581;28;20608;-81
2021/06/21 02:21:24;;;;;;;6.40;2.70;;;17.30;99.90;;;;;;5089903;28;20629;-81
2021/06/21 02:23:53;;;;;;;5.60;2.60;;;17.30;99.90;;;;;;5090736;28;20985;-81
2021/06/21 02:26:22;;;;;;;4.90;3.23;;;17.30;99.90;;;;;;5090093;28;20620;-81
2021/06/21 02:28:53;;;;;;;6.77;3.70;;;17.40;99.90;;;;;;5090690;28;20624;-81
2021/06/21 02:31:21;;;;;;;4.50;2.57;;;17.40;99.90;;;;;;5090715;28;20644;-81
2021/06/21 02:33:50;;;;;;;7.00;2.20;;;17.50;99.90;;;;;;5089771;28;20637;-81
2021/06/21 02:36:17;;;;;;;10.10;3.27;;;17.60;99.90;;;;;;5089359;28;21231;-81
2021/06/21 02:38:44;;;;;;;6.40;2.30;;;17.50;99.90;;;;;;5090550;28;20608;-82
2021/06/21 02:41:11;;;;;;;3.90;2.30;;;17.50;99.90;;;;;;5090275;28;20620;-82
2021/06/21 02:43:38;;;;;;;5.72;2.40;;;17.40;99.90;;;;;;5089811;28;21103;-81
2021/06/21 02:46:05;;;;;;;2.77;2.40;;;17.40;99.90;;;;;;5089696;28;20872;-82
2021/06/21 02:48:32;;;;;;;6.73;2.07;;;17.30;99.90;;;;;;5090407;28;20939;-82
2021/06/21 02:51:02;;;;;;;3.77;1.90;;;17.30;99.90;;;;;;5090188;28;20624;-82
2021/06/21 02:53:41;;;;;;;6.20;2.40;;;17.40;99.90;;;;;;5089749;28;20653;-82
2021/06/21 02:56:14;;;;;;;3.47;2.13;;;17.40;99.90;;;;;;5069681;28;20712;-82
2021/06/21 02:58:44;;;;;;;8.37;2.80;;;17.50;99.90;;;;;;5069542;28;20621;-82
2021/06/21 03:01:14;;;;;;;4.50;2.33;;;17.40;99.90;;;;;;5070329;28;21026;-82
2021/06/21 03:03:47;;;;;;;5.03;2.13;;;17.40;99.90;;;;;;5070146;28;20723;-83
2021/06/21 03:06:17;;;;;;;5.73;2.83;;;17.40;99.90;;;;;;5071406;28;20605;-82
2021/06/21 03:08:46;;;;;;;6.70;2.97;;;17.40;99.90;;;;;;5090347;28;20615;-82
2021/06/21 03:11:16;;;;;;;2.87;1.83;;;17.40;99.90;;;;;;5088964;28;21173;-82
2021/06/21 03:13:45;;;;;;;2.77;1.87;;;17.40;99.90;;;;;;5090546;28;21239;-82
2021/06/21 03:16:13;;;;;;;7.10;2.07;;;17.30;99.90;;;;;;5093749;28;20670;-82
2021/06/21 03:18:41;;;;;;;5.37;2.63;;;17.40;99.90;;;;;;5094291;28;21013;-81
2021/06/21 03:21:08;;;;;;;6.40;2.87;;;17.30;99.90;;;;;;5093989;28;20607;-82
2021/06/21 03:23:37;;;;;;;6.97;2.07;;;17.40;99.90;;;;;;5093325;28;20602;-82
2021/06/21 03:26:05;;;;;;;3.57;2.80;;;17.40;99.90;;;;;;5093353;28;20624;-83
2021/06/21 03:28:33;;;;;;;4.47;2.33;;;17.30;99.90;;;;;;5093955;28;20617;-82
2021/06/21 03:31:03;;;;;;;4.50;2.77;;;17.30;99.90;;;;;;5094237;28;20658;-82
2021/06/21 03:33:31;;;;;;;2.23;2.03;;;17.30;99.90;;;;;;5093800;28;20624;-83
2021/06/21 03:35:58;;;;;;;7.20;3.33;;;17.30;99.90;;;;;;5093317;28;20617;-83
2021/06/21 03:38:27;;;;;;;7.70;2.20;;;17.30;99.90;;;;;;5092919;28;20625;-83
2021/06/21 03:40:58;;;;;;;5.27;2.27;;;17.30;99.90;;;;;;5093791;28;20966;-82
2021/06/21 03:43:27;;;;;;;6.80;1.90;;;17.40;99.90;;;;;;5094064;28;20617;-82
2021/06/21 03:45:56;;;;;;;6.43;2.03;;;17.30;99.90;;;;;;5093167;28;20716;-83
2021/06/21 03:48:24;;;;;;;3.93;2.23;;;17.30;99.90;;;;;;5093933;28;20689;-82
2021/06/21 03:50:51;;;;;;;6.00;2.60;;;17.30;99.90;;;;;;5093128;28;20601;-82
2021/06/21 03:53:20;;;;;;;5.17;2.50;;;17.40;99.90;;;;;;5093170;28;20745;-83
2021/06/21 03:55:47;;;;;;;5.93;2.03;;;17.20;99.90;;;;;;5092634;28;20620;-82
2021/06/21 03:58:16;;;;;;;4.00;2.40;;;17.20;99.90;;;;;;5093248;28;20612;-83
2021/06/21 04:00:44;;;;;;;5.70;2.27;;;17.20;99.90;;;;;;5093444;28;20620;-83
2021/06/21 04:03:12;;;;;;;2.40;1.97;;;17.40;99.90;;;;;;5093142;28;20655;-82
2021/06/21 04:05:40;;;;;;;2.23;1.40;;;17.10;99.90;;;;;;5092809;28;20598;-83
2021/06/21 04:08:08;;;;;;;5.03;1.73;;;17.20;99.90;;;;;;5093283;28;20624;-83
2021/06/21 04:10:37;;;;;;;2.30;1.87;;;17.20;99.90;;;;;;5092436;28;20653;-83
2021/06/21 04:13:06;;;;;;;2.50;2.07;;;17.20;99.90;;;;;;5093230;28;20804;-83
2021/06/21 04:15:35;;;;;;;4.80;2.67;;;17.30;99.90;;;;;;5092731;28;20958;-83
2021/06/21 04:18:04;;;;;;;8.27;2.30;;;17.50;99.90;;;;;;5092820;28;20616;-83
2021/06/21 04:20:31;;;;;;;5.43;3.13;;;17.50;99.90;;;;;;5093583;28;20608;-83
2021/06/21 04:22:59;;;;;;;4.67;2.70;;;17.50;99.90;;;;;;5092921;28;20625;-83
2021/06/21 04:25:27;;;;;;;4.03;2.90;;;17.50;99.90;;;;;;5091447;28;20629;-83
2021/06/21 04:27:54;;;;;;;6.20;3.03;;;17.50;99.90;;;;;;5092877;28;20604;-83
2021/06/21 04:30:23;;;;;;;3.63;2.50;;;17.50;99.90;;;;;;5092344;28;20690;-83
2021/06/21 04:32:53;;;;;;;4.33;3.27;;;17.50;99.90;;;;;;5092713;28;20613;-83
2021/06/21 04:35:21;;;;;;;9.63;2.87;;;17.60;99.90;;;;;;5092422;28;21271;-83
2021/06/21 04:37:48;;;;;;;3.43;3.20;;;17.50;99.90;;;;;;5092732;28;21056;-83
2021/06/21 04:40:18;;;;;;;7.23;3.30;;;17.60;99.90;;;;;;5092045;28;20629;-83
2021/06/21 04:42:45;;;;;;;5.43;2.53;;;17.60;99.90;;;;;;5092173;28;20661;-84
2021/06/21 04:45:13;;;;;;;5.07;2.90;;;17.50;99.90;;;;;;5091759;28;20697;-83
2021/06/21 04:47:40;;;;;;;4.50;2.40;;;17.40;99.90;;;;;;5092611;28;20673;-83
2021/06/21 04:50:12;;;;;;;5.10;2.27;;;17.30;99.90;;;;;;5092662;28;20637;-83
2021/06/21 04:52:41;;;;;;;8.47;3.17;;;17.40;99.90;;;;;;5092615;28;20723;-83
2021/06/21 04:55:11;;;;;;;9.83;4.10;;;17.40;99.90;;;;;;5091476;28;20760;-83
2021/06/21 04:57:39;;;;;;;6.33;4.47;;;17.40;99.90;;;;;;5092216;28;20623;-84
2021/06/21 05:00:08;;;;;;;7.60;4.30;;;17.40;99.90;;;;;;5091976;28;20617;-83
2021/06/21 05:02:35;;;;;;;7.67;3.43;;;17.50;99.90;;;;;;5092533;28;20616;-83
2021/06/21 05:05:02;;;;;;;4.70;3.47;;;17.50;99.90;;;;;;5091694;28;21169;-84
2021/06/21 05:07:30;;;;;;;8.30;4.67;;;17.50;99.90;;;;;;5092129;28;20620;-84
2021/06/21 05:09:57;;;;;;;4.70;3.10;;;17.50;99.90;;;;;;5091133;28;20701;-83
2021/06/21 05:12:24;;;;;;;4.53;3.77;;;17.50;99.90;;;;;;5091487;28;20709;-84
2021/06/21 05:14:51;;;;;;;5.20;3.53;;;17.50;99.90;;;;;;5091516;28;20765;-83
2021/06/21 05:17:18;;;;;;;9.50;3.00;;;17.50;99.90;;;;;;5092061;28;20656;-83
2021/06/21 05:19:46;;;;;;;5.40;3.10;;;17.50;99.90;;;;;;5091894;28;20621;-84
2021/06/21 05:22:13;;;;;;;7.23;3.03;;;17.60;99.90;;;;;;5091740;28;20599;-83
2021/06/21 05:24:41;;;;;;;3.27;2.97;;;17.70;99.90;;;;;;5090509;28;20623;-84
2021/06/21 05:27:08;;;;;;;4.60;2.40;;;17.80;99.90;;;;;;5091842;28;20618;-84
2021/06/21 05:29:35;;;;;;;3.50;2.60;;;18.00;99.90;;;;;;5091510;28;20778;-84
2021/06/21 05:32:03;;;;;;;5.67;2.83;;;18.10;99.90;;;;;;5091655;28;20616;-84
2021/06/21 05:34:30;;;;;;;10.77;4.57;;;18.10;99.90;;;;;;5090823;28;21200;-83
2021/06/21 05:36:57;;;;;;;7.10;2.57;;;18.20;99.90;;;;;;5091337;28;20618;-83
2021/06/21 05:39:24;;;;;;;3.73;2.03;;;18.30;99.90;;;;;;5091473;28;20984;-83
2021/06/21 05:41:52;;;;;;;7.33;1.83;;;18.20;99.90;;;;;;5091374;28;20685;-83
2021/06/21 05:44:19;;;;;;;2.87;2.17;;;18.30;99.90;;;;;;5091158;28;20777;-83
2021/06/21 05:46:47;;;;;;;4.10;2.30;;;18.30;99.90;;;;;;5091046;28;20649;-83
2021/06/21 05:49:14;;;;;;;5.07;2.13;;;18.30;99.90;;;;;;5091314;28;20605;-83
2021/06/21 05:51:41;;;;;;;4.13;2.40;;;18.40;99.90;;;;;;5090844;28;20670;-83
2021/06/21 05:54:08;;;;;;;6.93;2.30;;;18.60;99.90;;;;;;5091123;28;20647;-83
2021/06/21 05:56:35;;;;;;;5.17;2.13;;;18.70;99.90;;;;;;5090849;28;20677;-83
2021/06/21 05:59:03;;;;;;;6.73;1.93;;;18.50;99.90;;;;;;5091278;28;20710;-83
2021/06/21 06:01:30;;;;;;;3.80;2.50;;;18.50;99.90;;;;;;5090499;28;21168;-84
2021/06/21 06:03:57;;;;;;;4.70;2.50;;;18.40;99.90;;;;;;5090654;28;20690;-84
2021/06/21 06:06:24;;;;;;;4.57;2.47;;;18.50;99.90;;;;;;5089888;28;20624;-84
2021/06/21 06:08:51;;;;;;;5.23;1.80;;;18.40;99.90;;;;;;5090639;28;20608;-84
2021/06/21 06:11:18;;;;;;;3.97;1.70;;;18.50;99.90;;;;;;5090236;28;20994;-84
2021/06/21 06:13:46;;;;;;;10.37;2.53;;;18.60;99.90;;;;;;5091073;28;20751;-84
2021/06/21 06:16:14;;;;;;;7.53;2.10;;;18.80;99.90;;;;;;5090126;28;20599;-84
2021/06/21 06:18:44;;;;;;;4.57;2.13;;;19.00;99.90;;;;;;5089409;28;20627;-84
2021/06/21 06:21:11;;;;;;;4.53;1.87;;;19.00;99.90;;;;;;5090832;28;21164;-83
2021/06/21 06:23:38;;;;;;;2.47;1.83;;;19.00;99.90;;;;;;5090796;28;20677;-83
2021/06/21 06:26:05;;;;;;;4.37;1.70;;;18.90;99.90;;;;;;5090073;28;20616;-83
2021/06/21 06:28:32;;;;;;;2.93;2.20;;;19.00;99.90;;;;;;5090566;28;20647;-83
2021/06/21 06:30:59;;;;;;;5.20;2.40;;;19.10;99.90;;;;;;5090418;28;20661;-83
2021/06/21 06:33:27;;;;;;;2.83;2.37;;;19.20;99.90;;;;;;5089509;28;20673;-82
2021/06/21 06:35:54;;;;;;;6.27;2.67;;;19.40;99.90;;;;;;5089876;28;21232;-83
2021/06/21 06:38:21;;;;;;;6.60;2.80;;;19.40;99.90;;;;;;5090641;28;20623;-83
2021/06/21 06:40:48;;;;;;;4.50;1.90;;;19.20;99.90;;;;;;5090288;28;20720;-83
2021/06/21 06:43:15;;;;;;;5.80;2.73;;;19.20;99.90;;;;;;5090646;28;20612;-84
2021/06/21 06:45:42;;;;;;;8.20;1.90;;;19.20;99.90;;;;;;5089644;28;20613;-82
2021/06/21 06:48:09;;;;;;;3.13;2.53;;;19.40;99.90;;;;;;5090154;28;20609;-83
2021/06/21 06:50:37;;;;;;;5.23;2.20;;;19.50;99.90;;;;;;5090613;28;21031;-83
2021/06/21 06:53:05;;;;;;;2.67;2.47;;;19.50;99.90;;;;;;5090414;28;20628;-82
2021/06/21 06:58:16;;;;;;;7.50;2.87;;;19.50;99.90;;;;;;5089887;28;21296;-83
2021/06/21 07:00:43;;;;;;;5.33;2.50;;;19.60;99.90;;;;;;5090483;28;20601;-83
2021/06/21 07:03:11;;;;;;;6.53;1.90;;;19.70;99.90;;;;;;5089418;28;21003;-83
2021/06/21 07:05:43;;;;;;;2.67;2.03;;;19.80;99.90;;;;;;5089661;28;21027;-83
2021/06/21 07:08:10;;;;;;;2.20;1.23;;;19.90;99.90;;;;;;5090294;28;20951;-83
2021/06/21 07:10:37;;;;;;;6.97;2.20;;;19.90;99.90;;;;;;5073374;28;20630;-83
2021/06/21 07:13:04;;;;;;;6.63;1.87;;;20.10;99.90;;;;;;5088761;28;20974;-83
2021/06/21 07:15:31;;;;;;;4.33;1.63;;;20.20;99.90;;;;;;5089715;28;20692;-83
2021/06/21 07:20:59;;;;;;;8.13;3.03;;;20.50;99.90;;;;;;5077580;28;20624;-83
2021/06/21 07:23:26;;;;;;;3.40;1.70;;;20.50;99.90;;;;;;5084239;28;20616;-83
2021/06/21 07:25:53;;;;;;;1.60;1.43;;;20.40;99.90;;;;;;5089504;28;20633;-83
2021/06/21 07:28:21;;;;;;;3.90;1.90;;;20.50;99.90;;;;;;5087713;28;20621;-82
2021/06/21 07:30:48;;;;;;;2.13;1.80;;;20.70;99.90;;;;;;5084695;28;20616;-83
2021/06/21 07:33:15;;;;;;;3.67;1.83;;;20.70;99.90;;;;;;5090041;28;20619;-81
2021/06/21 07:35:42;;;;;;;5.00;1.60;;;20.70;99.90;;;;;;5089010;28;20645;-83
2021/06/21 07:38:11;;;;;;;4.10;2.20;;;20.60;99.90;;;;;;5090004;28;20614;-83
2021/06/21 07:40:39;;;;;;;2.10;1.30;;;20.50;99.90;;;;;;5089135;28;20652;-83
2021/06/21 07:43:06;;;;;;;4.37;1.87;;;20.90;99.90;;;;;;5090074;28;20670;-82
2021/06/21 07:45:33;;;;;;;6.50;1.90;;;21.10;99.90;;;;;;5089724;28;20661;-83
2021/06/21 07:48:00;;;;;;;5.93;1.23;;;21.00;99.90;;;;;;5089736;28;20681;-83
2021/06/21 07:50:28;;;;;;;3.43;2.17;;;21.00;99.90;;;;;;5089282;28;20601;-82
2021/06/21 07:52:55;;;;;;;2.27;1.67;;;21.10;99.90;;;;;;5089790;28;20704;-82
2021/06/21 07:55:27;;;;;;;4.90;1.37;;;21.10;99.90;;;;;;5088937;28;20656;-83
2021/06/21 07:57:55;;;;;;;3.00;2.00;;;21.20;99.90;;;;;;5089397;28;20706;-83
2021/06/21 08:00:24;;;;;;;2.83;1.70;;;21.40;99.90;;;;;;5089730;28;20601;-83
2021/06/21 08:02:51;;;;;;;3.70;1.57;;;21.40;99.90;;;;;;5092747;28;20658;-83
2021/06/21 08:05:18;;;;;;;5.43;1.43;;;21.60;99.90;;;;;;5093128;28;20625;-83
2021/06/21 08:07:45;;;;;;;2.70;1.40;;;21.50;99.60;;;;;;5093394;28;21172;-83
2021/06/21 08:10:13;;;;;;;7.60;2.17;;;21.50;99.10;;;;;;5092428;28;20605;-84
2021/06/21 08:12:43;;;;;;;6.50;2.40;;;21.80;99.40;;;;;;5092193;28;20827;-83
2021/06/21 08:15:11;;;;;;;3.33;2.00;;;21.80;99.00;;;;;;5092403;28;20655;-83
2021/06/21 08:17:39;;;;;;;3.03;1.80;;;21.80;99.50;;;;;;5092902;28;21236;-83
2021/06/21 08:20:08;;;;;;;3.27;1.60;;;22.20;99.90;;;;;;5093454;28;20611;-83
2021/06/21 08:22:35;;;;;;;4.70;1.90;;;22.50;98.10;;;;;;5093112;28;20672;-84
2021/06/21 08:25:03;;;;;;;4.40;1.50;;;22.70;97.20;;;;;;5092201;28;20619;-83
2021/06/21 08:27:30;;;;;;;4.90;1.70;;;22.90;96.20;;;;;;5092449;28;20619;-83
2021/06/21 08:29:59;;;;;;;2.47;2.27;;;23.00;95.50;;;;;;5092526;28;21179;-83
2021/06/21 08:32:27;;;;;;;2.23;1.70;;;23.10;95.60;;;;;;5092631;28;20671;-83
2021/06/21 08:34:54;;;;;;;2.90;1.70;;;22.90;95.90;;;;;;5092073;28;21200;-83
2021/06/21 08:37:21;;;;;;;6.10;1.80;;;22.90;95.20;;;;;;5092817;28;20626;-84
2021/06/21 08:39:50;;;;;;;2.63;1.83;;;23.00;95.50;;;;;;5092537;28;20673;-82
2021/06/21 08:42:18;;;;;;;2.20;1.33;;;23.10;96.30;;;;;;5092743;28;20621;-82
2021/06/21 08:44:44;;;;;;;2.20;1.53;;;23.00;94.70;;;;;;5091898;28;20628;-82
2021/06/21 08:47:17;;;;;;;1.60;1.50;;;22.90;95.60;;;;;;5092642;28;20632;-82
2021/06/21 08:49:46;;;;;;;4.97;1.70;;;22.80;95.80;;;;;;5092646;28;20629;-82
2021/06/21 08:52:14;;;;;;;2.90;2.37;;;22.90;94.90;;;;;;5092727;28;20685;-82
2021/06/21 08:54:41;;;;;;;2.63;2.07;;;22.70;95.40;;;;;;5091656;28;20639;-83
2021/06/21 08:57:08;;;;;;;8.60;2.40;;;22.90;96.30;;;;;;5092338;28;20616;-83
2021/06/21 08:59:35;;;;;;;2.40;2.20;;;23.10;95.40;;;;;;5092011;28;20621;-83
2021/06/21 09:02:03;;;;;;;3.40;1.67;;;23.30;94.30;;;;;;5092353;28;20624;-81
2021/06/21 09:04:36;;;;;;;2.47;2.00;;;23.40;92.50;;;;;;5091680;28;20678;-83
2021/06/21 09:07:19;;;;;;;2.67;1.40;;;23.30;92.90;;;;;;5092259;28;20619;-82
2021/06/21 09:09:46;;;;;;;1.50;1.17;;;23.50;93.60;;;;;;5089974;28;21181;-82
2021/06/21 09:12:13;;;;;;;3.23;1.90;;;23.60;94.10;;;;;;5091645;28;20632;-82
2021/06/21 09:14:41;;;;;;;2.67;2.17;;;23.60;93.20;;;;;;5090842;28;20645;-82
2021/06/21 09:17:10;;;;;;;2.27;1.93;;;23.90;92.60;;;;;;5091908;28;20667;-82
2021/06/21 09:19:54;;;;;;;2.10;1.90;;;24.00;92.80;;;;;;5091915;28;21003;-82
2021/06/21 09:22:33;;;;;;;3.77;1.53;;;24.00;92.90;;;;;;5092251;28;20662;-83
2021/06/21 09:25:03;;;;;;;1.67;1.43;;;24.20;92.10;;;;;;5091336;28;20616;-82
2021/06/21 09:27:30;;;;;;;1.80;1.70;;;24.20;91.20;;;;;;5083546;28;21041;-81
2021/06/21 09:30:02;;;;;;;3.90;2.00;;;24.30;92.40;;;;;;5076862;28;20632;-82
2021/06/21 09:32:45;;;;;;;3.43;1.70;;;24.30;90.70;;;;;;5077652;28;20618;-81
2021/06/21 09:35:40;;;;;;;3.47;1.60;;;24.00;88.20;;;;;;5090725;28;21071;-81
2021/06/21 09:38:15;;;;;;;2.50;1.57;;;24.20;91.50;;;;;;5080924;28;20610;-82
2021/06/21 09:40:46;;;;;;;4.37;1.80;;;24.30;88.60;;;;;;5070519;28;20635;-82
2021/06/21 09:43:23;;;;;;;2.70;1.80;;;24.60;90.60;;;;;;5091099;28;20673;-82
2021/06/21 09:46:18;;;;;;;1.87;1.60;;;24.60;89.50;;;;;;5089490;28;20609;-82
2021/06/21 09:48:46;;;;;;;1.50;1.30;;;24.70;88.30;;;;;;5050788;28;20663;-82
2021/06/21 09:51:32;;;;;;;4.90;1.70;;;24.80;87.20;;;;;;5090312;28;20619;-84
2021/06/21 09:54:03;;;;;;;2.13;2.00;;;24.80;85.40;;;;;;5081532;28;20618;-82
2021/06/21 09:56:35;;;;;;;2.60;1.90;;;24.90;85.00;;;;;;5084804;28;20652;-83
2021/06/21 09:59:16;;;;;;;2.03;1.40;;;24.90;88.10;;;;;;5074480;28;20651;-82
2021/06/21 10:01:43;;;;;;;2.70;1.27;;;25.10;86.30;;;;;;5090143;28;20685;-82
2021/06/21 10:04:22;;;;;;;4.40;2.00;;;25.10;86.20;;;;;;5079934;28;20617;-82
2021/06/21 10:06:51;;;;;;;5.60;1.77;;;25.10;86.70;;;;;;5087311;28;20670;-82
2021/06/21 10:09:17;;;;;;;2.50;1.87;;;25.20;82.70;;;;;;5087201;28;20614;-82
2021/06/21 10:11:45;;;;;;;3.43;1.80;;;25.20;83.20;;;;;;5077695;28;20715;-83
2021/06/21 10:14:14;;;;;;;3.27;1.70;;;25.20;80.50;;;;;;5078637;28;20625;-82
2021/06/21 10:16:43;;;;;;;2.20;1.70;;;25.30;84.00;;;;;;5085648;28;21247;-82
2021/06/21 10:19:11;;;;;;;4.80;2.20;;;25.60;80.90;;;;;;5090280;28;20624;-83
2021/06/21 10:21:41;;;;;;;2.20;1.50;;;25.70;81.40;;;;;;5090640;28;20639;-82
2021/06/21 10:24:10;;;;;;;1.37;1.37;;;26.00;83.30;;;;;;5088913;28;20662;-83
2021/06/21 10:26:38;;;;;;;6.83;1.70;;;25.80;76.90;;;;;;5075098;28;21155;-82
2021/06/21 10:29:06;;;;;;;2.50;1.40;;;26.10;78.20;;;;;;5087201;28;20617;-82
2021/06/21 10:31:35;;;;;;;1.93;1.50;;;26.10;78.90;;;;;;5076063;28;20628;-82
2021/06/21 10:34:06;;;;;;;1.90;1.60;;;26.10;77.40;;;;;;5090707;28;21056;-82
2021/06/21 10:36:43;;;;;;;3.87;2.37;;;26.10;77.00;;;;;;5075871;28;20715;-83
2021/06/21 10:39:14;;;;;;;1.33;1.30;;;26.10;78.50;;;;;;5086442;28;20682;-83
2021/06/21 10:41:41;;;;;;;3.03;2.33;;;26.20;71.80;;;;;;5077281;28;20677;-82
2021/06/21 10:44:28;;;;;;;3.30;2.00;;;26.20;75.80;;;;;;5079542;28;20629;-83
2021/06/21 10:47:26;;;;;;;2.87;1.70;;;26.70;75.20;;;;;;5087089;28;21185;-82
2021/06/21 10:49:58;;;;;;;5.10;2.03;;;27.10;74.90;;;;;;5080317;28;21030;-82
2021/06/21 10:52:39;;;;;;;2.33;1.63;;;27.00;71.40;;;;;;5090289;28;20605;-82
2021/06/21 10:55:47;;;;;;;2.53;1.70;;;27.10;73.20;;;;;;5072918;28;20621;-82
2021/06/21 10:58:45;;;;;;;2.00;1.90;;;27.20;73.90;;;;;;5055795;28;20622;-83
2021/06/21 11:01:23;;;;;;;3.67;2.47;;;27.70;71.20;;;;;;5066421;28;20640;-83
2021/06/21 11:03:51;;;;;;;4.07;2.00;;;27.80;70.50;;;;;;5085294;28;20682;-83
2021/06/21 11:06:38;;;;;;;1.33;1.23;;;28.00;71.30;;;;;;5089778;28;20677;-83
2021/06/21 11:09:07;;;;;;;2.20;1.73;;;27.70;68.40;;;;;;5090186;28;21173;-83
2021/06/21 11:11:44;;;;;;;2.10;2.00;;;28.00;68.50;;;;;;5088604;28;20609;-83
2021/06/21 11:14:14;;;;;;;2.20;1.70;;;27.90;67.90;;;;;;5089706;28;20611;-83
2021/06/21 11:16:43;;;;;;;4.37;2.00;;;28.10;68.60;;;;;;5088240;28;20641;-82
2021/06/21 11:19:34;;;;;;;3.40;2.00;;;28.00;67.70;;;;;;5081459;28;20612;-83
2021/06/21 11:22:04;;;;;;;2.77;2.00;;;27.50;64.30;;;;;;5084122;28;20735;-83
2021/06/21 11:24:57;;;;;;;2.60;1.70;;;28.30;69.40;;;;;;5084571;28;21165;-82
2021/06/21 11:27:39;;;;;;;2.77;2.13;;;28.70;66.90;;;;;;5079522;28;20621;-82
2021/06/21 11:30:29;;;;;;;4.30;1.93;;;28.50;64.60;;;;;;5086195;28;20620;-82
2021/06/21 11:32:59;;;;;;;1.80;1.70;;;28.80;63.10;;;;;;5082701;28;20605;-82
2021/06/21 11:35:53;;;;;;;3.07;1.80;;;28.70;66.60;;;;;;5090393;28;20656;-82
2021/06/21 11:38:31;;;;;;;3.33;1.90;;;29.40;63.10;;;;;;5071834;28;20629;-82
2021/06/21 11:41:24;;;;;;;1.80;1.70;;;29.90;59.60;;;;;;5086396;28;20644;-83
2021/06/21 11:43:56;;;;;;;4.90;1.67;;;30.60;57.60;;;;;;5088261;28;20612;-83
2021/06/21 11:46:44;;;;;;;2.20;1.33;;;30.10;57.60;;;;;;5076515;28;20637;-82
2021/06/21 11:49:13;;;;;;;1.90;1.50;;;30.10;58.00;;;;;;5093494;28;20628;-83
2021/06/21 11:51:53;;;;;;;2.07;1.50;;;30.00;58.20;;;;;;5080456;28;20622;-83
2021/06/21 11:54:21;;;;;;;1.60;1.50;;;30.70;57.90;;;;;;5091615;28;20609;-82
2021/06/21 11:56:51;;;;;;;7.33;1.50;;;30.40;56.10;;;;;;5093672;28;20645;-82
2021/06/21 11:59:35;;;;;;;1.80;1.70;;;29.40;56.90;;;;;;5094028;28;20627;-82
2021/06/21 12:02:05;;;;;;;2.73;1.30;;;28.20;59.60;;;;;;5093509;28;20961;-83
2021/06/21 12:04:31;;;;;;;1.47;1.37;;;28.30;58.40;;;;;;5092263;28;20632;-83
2021/06/21 12:06:59;;;;;;;3.10;2.00;;;28.30;59.50;;;;;;5092884;28;20736;-83
2021/06/21 12:09:26;;;;;;;2.83;1.50;;;29.20;59.00;;;;;;5093170;28;20608;-82
2021/06/21 12:11:54;;;;;;;2.37;1.80;;;29.90;57.90;;;;;;5091589;28;20612;-83
2021/06/21 12:14:23;;;;;;;1.70;1.30;;;30.40;59.50;;;;;;5092893;28;20619;-83
2021/06/21 12:17:02;;;;;;;2.67;1.67;;;30.60;58.20;;;;;;5092698;28;20748;-84
2021/06/21 12:19:29;;;;;;;3.17;1.90;;;31.00;60.60;;;;;;5093078;28;20617;-82
2021/06/21 12:21:56;;;;;;;5.90;1.53;;;31.00;55.50;;;;;;5080388;28;20621;-84
2021/06/21 12:24:25;;;;;;;2.13;1.60;;;32.60;55.60;;;;;;5087521;28;20675;-84
2021/06/21 12:26:56;;;;;;;1.60;1.50;;;33.70;52.80;;;;;;5076313;28;20621;-83
2021/06/21 12:29:31;;;;;;;1.30;1.13;;;34.00;50.00;;;;;;5085322;28;21180;-84
2021/06/21 12:32:02;;;;;;;1.63;1.50;;;33.90;52.10;;;;;;5078647;28;20623;-83
2021/06/21 12:34:49;;;;;;;2.50;1.63;;;34.80;50.50;;;;;;5084985;28;20621;-84
2021/06/21 12:37:38;;;;;;;1.90;1.33;;;35.80;49.30;;;;;;5086249;28;20691;-84
2021/06/21 12:40:14;;;;;;;1.33;1.30;;;36.60;46.10;;;;;;5075160;28;20655;-85
2021/06/21 12:42:42;;;;;;;3.27;1.63;;;37.30;43.50;;;;;;5092660;28;20186;-82
2021/06/21 12:45:12;;;;;;;1.43;1.10;;;37.30;44.30;;;;;;5092673;28;20681;-82
2021/06/21 12:47:45;;;;;;;1.38;1.27;;;37.30;43.20;;;;;;5075265;28;20195;-81
2021/06/21 12:50:13;;;;;;;2.38;1.48;;;37.60;45.30;;;;;;5076961;28;20194;-82
2021/06/21 12:52:43;;;;;;;1.30;1.20;;;37.90;44.90;;;;;;5085628;28;20194;-81
2021/06/21 12:55:12;;;;;;;1.73;1.30;;;37.20;41.90;;;;;;5082166;28;20716;-82
2021/06/21 12:57:52;;;;;;;4.28;1.80;;;36.70;44.80;;;;;;5086399;28;20226;-82
2021/06/21 13:00:37;;;;;;;1.58;1.48;;;37.40;42.20;;;;;;5090665;28;20196;-83
2021/06/21 13:03:13;;;;;;;3.05;1.45;;;38.00;42.70;;;;;;5079951;28;20678;-82
2021/06/21 13:05:41;;;;;;;2.38;1.42;;;38.40;42.00;;;;;;5079229;28;20202;-82
2021/06/21 13:08:09;;;;;;;5.00;1.50;;;38.40;41.60;;;;;;5088950;28;20186;-82